createdAt,value
2022-12-10T00:00:25.392Z,15.27
2022-12-10T00:03:12.266Z,14.07
2022-12-10T00:06:03.760Z,15.45
2022-12-10T00:08:51.070Z,14.40
2022-12-10T00:11:41.333Z,14.77
2022-12-10T00:14:30.869Z,15.18
2022-12-10T00:17:17.789Z,14.68
2022-12-10T00:20:05.233Z,13.60
2022-12-10T00:22:52.106Z,15.45
2022-12-10T00:25:43.801Z,14.60
2022-12-10T00:28:30.786Z,15.00
2022-12-10T00:31:20.443Z,14.82
2022-12-10T00:34:10.898Z,14.70
2022-12-10T00:36:57.693Z,14.82
2022-12-10T00:39:44.512Z,13.55
2022-12-10T00:42:31.325Z,15.25
2022-12-10T00:45:19.772Z,13.80
2022-12-10T00:48:06.606Z,14.07
2022-12-10T00:50:57.646Z,14.88
2022-12-10T00:53:45.546Z,13.93
2022-12-10T00:56:33.564Z,15.65
2022-12-10T00:59:20.356Z,15.02
2022-12-10T01:02:07.190Z,14.77
2022-12-10T01:04:54.902Z,15.00
2022-12-10T01:08:03.457Z,15.43
2022-12-10T01:10:56.904Z,15.63
2022-12-10T01:13:47.637Z,13.68
2022-12-10T01:16:34.900Z,15.23
2022-12-10T01:19:22.069Z,15.25
2022-12-10T01:22:09.003Z,15.88
2022-12-10T01:24:55.906Z,14.43
2022-12-10T01:27:42.724Z,13.45
2022-12-10T01:30:29.565Z,13.38
2022-12-10T01:33:16.436Z,13.27
2022-12-10T01:36:12.868Z,12.38
2022-12-10T01:39:00.458Z,13.75
2022-12-10T01:41:53.444Z,12.38
2022-12-10T01:44:42.983Z,12.52
2022-12-10T01:47:30.003Z,12.15
2022-12-10T01:50:17.487Z,12.15
2022-12-10T01:53:04.725Z,12.77
2022-12-10T01:55:51.871Z,14.90
2022-12-10T01:58:39.220Z,13.27
2022-12-10T02:01:37.806Z,13.57
2022-12-10T02:04:42.925Z,12.90
2022-12-10T02:08:03.594Z,13.93
2022-12-10T02:10:59.469Z,14.55
2022-12-10T02:13:53.537Z,13.65
2022-12-10T02:16:53.992Z,13.15
2022-12-10T02:19:58.924Z,12.63
2022-12-10T02:22:58.089Z,12.45
2022-12-10T02:25:52.567Z,12.57
2022-12-10T02:28:52.351Z,12.82
2022-12-10T02:31:42.869Z,12.80
2022-12-10T02:34:52.252Z,14.13
2022-12-10T02:37:44.919Z,12.90
2022-12-10T02:40:38.185Z,12.73
2022-12-10T02:43:25.588Z,12.15
2022-12-10T02:46:12.694Z,11.90
2022-12-10T02:49:01.307Z,12.35
2022-12-10T02:51:48.156Z,13.40
2022-12-10T02:54:39.896Z,12.88
2022-12-10T02:57:51.574Z,12.00
2022-12-10T03:00:49.209Z,12.80
2022-12-10T03:03:45.840Z,12.65
2022-12-10T03:06:39.295Z,11.57
2022-12-10T03:09:31.694Z,11.60
2022-12-10T03:12:23.924Z,11.85
2022-12-10T03:15:12.604Z,12.48
2022-12-10T03:18:02.180Z,11.85
2022-12-10T03:20:49.512Z,12.32
2022-12-10T03:23:39.375Z,13.02
2022-12-10T03:26:26.465Z,13.50
2022-12-10T03:29:22.536Z,13.70
2022-12-10T03:32:09.367Z,13.00
2022-12-10T03:34:57.909Z,12.55
2022-12-10T03:37:44.734Z,12.77
2022-12-10T03:40:31.894Z,12.48
2022-12-10T03:43:18.707Z,12.95
2022-12-10T03:46:05.717Z,13.05
2022-12-10T03:48:52.998Z,12.10
2022-12-10T03:51:39.913Z,12.40
2022-12-10T03:54:26.835Z,12.18
2022-12-10T03:57:13.791Z,13.27
2022-12-10T04:00:08.310Z,13.30
2022-12-10T04:02:55.489Z,12.88
2022-12-10T04:05:42.306Z,13.57
2022-12-10T04:08:29.271Z,12.80
2022-12-10T04:11:17.125Z,12.55
2022-12-10T04:14:22.626Z,13.82
2022-12-10T04:17:09.456Z,12.85
2022-12-10T04:19:56.259Z,13.38
2022-12-10T04:23:01.826Z,14.65
2022-12-10T04:26:07.221Z,13.05
2022-12-10T04:28:53.970Z,12.90
2022-12-10T04:31:40.752Z,13.30
2022-12-10T04:34:27.739Z,13.82
2022-12-10T04:37:19.134Z,13.70
2022-12-10T04:40:07.218Z,12.45
2022-12-10T04:42:54.299Z,13.40
2022-12-10T04:45:41.140Z,13.10
2022-12-10T04:48:27.987Z,12.90
2022-12-10T04:51:17.650Z,14.45
2022-12-10T04:54:05.316Z,13.43
2022-12-10T04:56:52.342Z,13.80
2022-12-10T04:59:39.227Z,13.18
2022-12-10T05:02:26.071Z,13.90
2022-12-10T05:05:16.144Z,14.85
2022-12-10T05:08:12.163Z,13.82
2022-12-10T05:11:03.620Z,14.15
2022-12-10T05:13:54.274Z,14.00
2022-12-10T05:16:41.349Z,13.65
2022-12-10T05:19:28.205Z,14.00
2022-12-10T05:22:36.165Z,13.07
2022-12-10T05:25:23.009Z,13.45
2022-12-10T05:28:09.867Z,14.77
2022-12-10T05:30:57.464Z,15.13
2022-12-10T05:33:44.481Z,13.55
2022-12-10T05:36:32.469Z,13.30
2022-12-10T05:39:19.282Z,13.55
2022-12-10T05:42:06.168Z,14.63
2022-12-10T05:44:52.914Z,14.75
2022-12-10T05:47:39.810Z,15.00
2022-12-10T05:50:26.571Z,14.40
2022-12-10T05:53:14.863Z,15.25
2022-12-10T05:56:04.586Z,15.52
2022-12-10T05:58:52.994Z,14.93
2022-12-10T06:01:39.748Z,16.13
2022-12-10T06:04:26.533Z,15.00
2022-12-10T06:07:13.430Z,16.08
2022-12-10T06:10:00.189Z,14.70
2022-12-10T06:12:49.877Z,16.70
2022-12-10T06:15:39.828Z,16.27
2022-12-10T06:18:26.656Z,16.05
2022-12-10T06:21:15.960Z,16.90
2022-12-10T06:26:52.670Z,15.70
2022-12-10T06:29:42.323Z,14.57
2022-12-10T06:32:29.132Z,15.18
2022-12-10T06:35:15.919Z,14.20
2022-12-10T06:38:02.732Z,15.00
2022-12-10T06:40:49.582Z,15.68
2022-12-10T06:43:36.990Z,14.70
2022-12-10T06:46:23.869Z,13.73
2022-12-10T06:49:10.811Z,14.55
2022-12-10T06:51:57.669Z,14.52
2022-12-10T06:54:44.465Z,14.45
2022-12-10T06:57:34.287Z,14.45
2022-12-10T07:00:22.282Z,14.27
2022-12-10T07:03:09.198Z,14.70
2022-12-10T07:05:58.741Z,14.27
2022-12-10T07:08:45.635Z,14.98
2022-12-10T07:11:32.541Z,14.20
2022-12-10T07:14:19.541Z,14.15
2022-12-10T07:17:06.380Z,14.73
2022-12-10T07:19:53.173Z,14.15
2022-12-10T07:22:43.259Z,14.55
2022-12-10T07:25:51.080Z,14.50
2022-12-10T07:28:46.636Z,14.23
2022-12-10T07:31:38.973Z,17.10
2022-12-10T07:34:25.898Z,15.80
2022-12-10T07:37:12.801Z,14.48
2022-12-10T07:39:59.686Z,15.55
2022-12-10T07:42:47.581Z,16.02
2022-12-10T07:45:34.424Z,15.35
2022-12-10T07:48:21.514Z,14.05
2022-12-10T07:51:12.859Z,15.02
2022-12-10T07:53:59.634Z,15.13
2022-12-10T07:56:46.505Z,14.82
2022-12-10T07:59:33.309Z,14.73
2022-12-10T08:02:20.662Z,14.88
2022-12-10T08:05:07.697Z,13.50
2022-12-10T08:08:03.046Z,15.77
2022-12-10T08:10:52.086Z,15.63
2022-12-10T08:13:39.053Z,17.23
2022-12-10T08:16:34.779Z,18.50
2022-12-10T08:19:25.806Z,17.40
2022-12-10T08:22:26.178Z,16.77
2022-12-10T08:25:15.901Z,18.40
2022-12-10T08:28:03.966Z,17.13
2022-12-10T08:31:03.673Z,17.25
2022-12-10T08:33:52.238Z,16.55
2022-12-10T08:36:39.121Z,16.48
2022-12-10T08:39:31.600Z,18.63
2022-12-10T08:42:18.397Z,15.55
2022-12-10T08:45:06.395Z,16.98
2022-12-10T08:47:53.494Z,16.05
2022-12-10T09:58:36.926Z,14.32
2022-12-10T10:45:52.524Z,14.95
2022-12-10T10:48:42.496Z,16.45
2022-12-10T10:51:33.072Z,15.52
2022-12-10T10:58:23.596Z,15.10
2022-12-10T11:06:03.610Z,14.13
2022-12-10T11:09:33.138Z,14.73
2022-12-10T11:25:41.595Z,14.35
2022-12-10T11:40:38.456Z,13.90
2022-12-10T11:44:26.868Z,13.82
2022-12-10T11:47:57.009Z,14.20
2022-12-10T12:12:42.556Z,13.45
2022-12-10T12:21:25.691Z,14.73
2022-12-10T12:24:06.218Z,13.18
2022-12-10T12:35:24.933Z,12.82
2022-12-10T12:46:49.412Z,12.52
2022-12-10T13:00:34.519Z,13.55
2022-12-10T13:03:57.078Z,12.73
2022-12-10T13:07:45.969Z,13.27
2022-12-10T13:11:28.187Z,12.55
2022-12-10T13:15:22.720Z,12.23
2022-12-10T13:21:54.594Z,12.65
2022-12-10T13:26:27.100Z,12.65
2022-12-10T13:30:00.831Z,12.55
2022-12-10T13:45:22.610Z,12.45
2022-12-10T13:52:33.260Z,12.90
2022-12-10T14:52:25.629Z,12.35
2022-12-10T15:19:03.135Z,13.52
2022-12-10T15:30:57.929Z,13.88
2022-12-10T15:34:32.972Z,14.00
2022-12-10T15:38:41.595Z,12.43
2022-12-10T15:42:33.457Z,12.90
2022-12-10T16:13:31.950Z,15.77
2022-12-10T16:16:21.597Z,15.75
2022-12-10T16:19:34.527Z,16.15
2022-12-10T16:22:24.916Z,17.08
2022-12-10T16:25:12.067Z,15.02
2022-12-10T16:28:09.612Z,15.85
2022-12-10T16:30:58.657Z,15.70
2022-12-10T16:33:47.755Z,15.95
2022-12-10T16:36:36.712Z,14.68
2022-12-10T16:39:31.226Z,15.07
2022-12-10T16:42:26.140Z,16.25
2022-12-10T16:45:32.231Z,15.70
2022-12-10T16:48:20.177Z,14.90
2022-12-10T16:51:16.296Z,14.45
2022-12-10T16:54:04.612Z,15.13
2022-12-10T16:56:54.573Z,15.83
2022-12-10T16:59:47.242Z,14.68
2022-12-10T17:02:36.793Z,14.52
2022-12-10T17:05:31.324Z,14.02
2022-12-10T17:08:22.069Z,16.30
2022-12-10T17:11:37.884Z,15.90
2022-12-10T17:14:29.507Z,16.25
2022-12-10T17:17:21.860Z,16.85
2022-12-10T17:20:17.485Z,15.18
2022-12-10T17:23:06.995Z,15.90
2022-12-10T17:25:54.096Z,14.18
2022-12-10T17:28:47.143Z,15.30
2022-12-10T17:31:34.252Z,16.15
2022-12-10T17:34:25.253Z,14.82
2022-12-10T17:37:15.601Z,15.15
2022-12-10T17:40:03.775Z,14.65
2022-12-10T17:42:51.391Z,14.07
2022-12-10T17:45:41.272Z,15.45
2022-12-10T17:48:36.011Z,15.50
2022-12-10T17:51:32.933Z,15.38
2022-12-10T17:54:19.771Z,14.65
2022-12-10T17:57:14.868Z,15.38
2022-12-10T18:00:01.897Z,15.65
2022-12-10T18:02:49.726Z,14.18
2022-12-10T18:05:36.716Z,14.93
2022-12-10T18:08:36.333Z,14.40
2022-12-10T18:11:26.282Z,14.27
2022-12-10T18:14:15.637Z,13.48
2022-12-10T18:17:04.307Z,14.27
2022-12-10T18:19:53.882Z,13.90
2022-12-10T18:22:43.061Z,13.65
2022-12-10T18:25:30.701Z,14.45
2022-12-10T18:28:25.633Z,13.88
2022-12-10T18:31:26.200Z,13.30
2022-12-10T18:34:14.897Z,12.55
2022-12-10T18:37:02.869Z,12.73
2022-12-10T18:39:52.462Z,13.63
2022-12-10T18:42:43.730Z,13.70
2022-12-10T18:45:36.164Z,12.35
2022-12-10T18:51:40.244Z,13.05
2022-12-10T18:54:31.935Z,11.60
2022-12-10T18:57:34.025Z,12.13
2022-12-10T19:00:29.556Z,11.70
2022-12-10T19:03:20.883Z,11.95
2022-12-10T19:06:14.390Z,12.90
2022-12-10T19:09:18.223Z,11.57
2022-12-10T19:12:09.033Z,11.75
2022-12-10T19:15:06.444Z,11.32
2022-12-10T19:18:10.733Z,11.88
2022-12-10T19:20:59.922Z,11.13
2022-12-10T19:23:47.006Z,11.68
2022-12-10T19:26:42.106Z,11.27
2022-12-10T19:29:36.762Z,11.15
2022-12-10T19:32:33.274Z,12.00
2022-12-10T19:38:35.884Z,12.00
2022-12-10T19:41:32.421Z,11.43
2022-12-10T19:44:21.445Z,10.63
2022-12-10T19:47:20.820Z,10.80
2022-12-10T19:50:12.511Z,10.68
2022-12-10T19:53:00.279Z,9.93
2022-12-10T19:55:51.367Z,10.88
2022-12-10T19:58:40.580Z,10.98
2022-12-10T20:04:31.525Z,11.13
2022-12-10T20:07:24.042Z,10.50
2022-12-10T20:10:25.879Z,9.50
2022-12-10T20:13:12.867Z,10.85
2022-12-10T20:16:00.171Z,10.02
2022-12-10T20:18:56.984Z,10.95
2022-12-10T20:21:49.021Z,9.93
2022-12-10T20:24:37.532Z,10.25
2022-12-10T20:27:27.388Z,11.57
2022-12-10T20:30:23.698Z,11.70
2022-12-10T20:33:44.679Z,9.57
2022-12-10T20:36:27.033Z,10.57
2022-12-10T20:39:19.726Z,10.30
2022-12-10T20:42:06.812Z,10.27
2022-12-10T20:44:53.663Z,9.55
2022-12-10T20:47:42.034Z,9.32
2022-12-10T20:50:31.398Z,10.17
2022-12-10T20:53:20.719Z,10.40
2022-12-10T20:59:00.651Z,9.52
2022-12-10T21:01:47.889Z,9.77
2022-12-10T21:04:34.794Z,8.50
2022-12-10T21:07:29.122Z,9.90
2022-12-10T21:10:36.625Z,9.43
2022-12-10T21:13:31.740Z,9.23
2022-12-10T21:16:27.679Z,8.90
2022-12-10T21:19:15.098Z,9.55
2022-12-10T21:22:02.007Z,9.68
2022-12-10T21:24:52.372Z,9.70
2022-12-10T21:27:39.461Z,9.00
2022-12-10T21:30:26.349Z,9.13
2022-12-10T21:33:20.419Z,9.27
2022-12-10T21:36:08.876Z,8.95
2022-12-10T21:39:07.273Z,9.13
2022-12-10T21:42:12.739Z,9.23
2022-12-10T21:44:59.956Z,8.73
2022-12-10T21:47:46.715Z,8.95
2022-12-10T21:50:33.535Z,8.27
2022-12-10T21:53:20.435Z,8.95
2022-12-10T21:56:08.784Z,9.38
2022-12-10T21:58:55.605Z,8.93
2022-12-10T22:01:49.818Z,8.52
2022-12-10T22:04:37.301Z,8.30
2022-12-10T22:07:25.046Z,8.85
2022-12-10T22:14:03.726Z,9.15
2022-12-10T22:16:50.935Z,10.20
2022-12-10T22:19:46.244Z,8.80
2022-12-10T22:22:34.367Z,8.85
2022-12-10T22:25:24.245Z,9.38
2022-12-10T22:28:13.185Z,9.15
2022-12-10T22:31:00.149Z,8.38
2022-12-10T22:33:50.034Z,9.25
2022-12-10T22:36:36.939Z,8.77
2022-12-10T22:39:26.996Z,8.10
2022-12-10T22:42:14.267Z,9.68
2022-12-10T22:45:01.259Z,8.98
2022-12-10T22:47:50.829Z,8.88
2022-12-10T22:50:40.132Z,8.73
2022-12-10T22:56:14.999Z,7.80
2022-12-10T22:59:01.939Z,9.02
2022-12-10T23:01:48.869Z,9.00
2022-12-10T23:04:35.882Z,9.13
2022-12-10T23:07:22.848Z,9.43
2022-12-10T23:10:09.840Z,8.60
2022-12-10T23:13:13.795Z,8.57
2022-12-10T23:16:00.652Z,8.52
2022-12-10T23:18:50.667Z,9.60
2022-12-10T23:21:40.419Z,8.68
2022-12-10T23:24:27.367Z,8.75
2022-12-10T23:27:19.149Z,9.38
2022-12-10T23:30:08.154Z,9.23
2022-12-10T23:33:08.260Z,8.88
2022-12-10T23:35:58.812Z,9.20
2022-12-10T23:38:47.829Z,9.27
2022-12-10T23:41:34.658Z,9.10
2022-12-10T23:44:21.679Z,9.15
2022-12-10T23:47:14.038Z,8.73
2022-12-10T23:50:01.006Z,9.85
2022-12-10T23:52:48.133Z,8.95
2022-12-10T23:55:34.960Z,9.35
2022-12-10T23:58:22.127Z,8.85
